Time;durP1;ratioP1;P1;durP2;ratioP2;P2;SDS_P1;SDS_P2;PMS_P1;PMS_P2;Temp;Humidity;BMP_temperature;BMP_pressure;BME280_temperature;BME280_humidity;BME280_pressure;Samples;Min_cycle;Max_cycle;Signal;HPM_P1;HPM_P2
2021/05/09 00:00:40;;;;;;;3.92;3.40;;;10.50;1.00;;;;;;5029492;28;20050;-78
2021/05/09 00:03:06;;;;;;;14.85;10.25;;;10.50;1.00;;;;;;5059555;28;20369;-77
2021/05/09 00:05:32;;;;;;;8.23;5.75;;;10.50;1.00;;;;;;5025553;28;20034;-78
2021/05/09 00:07:58;;;;;;;7.35;6.00;;;10.50;1.00;;;;;;5033064;28;20034;-77
2021/05/09 00:10:24;;;;;;;8.50;4.55;;;10.40;1.00;;;;;;5052302;28;20247;-77
2021/05/09 00:12:50;;;;;;;8.50;4.85;;;10.30;1.00;;;;;;5019381;28;20026;-77
2021/05/09 00:15:21;;;;;;;5.10;4.47;;;10.30;1.00;;;;;;5021626;28;20034;-77
2021/05/09 00:17:47;;;;;;;5.43;4.55;;;10.40;1.00;;;;;;5024351;28;20101;-77
2021/05/09 00:20:12;;;;;;;7.82;4.50;;;10.30;1.00;;;;;;5023956;28;20060;-76
2021/05/09 00:22:38;;;;;;;6.50;3.80;;;10.40;1.00;;;;;;5039915;28;20437;-77
2021/05/09 00:25:05;;;;;;;4.05;3.58;;;10.30;1.00;;;;;;5026354;28;20080;-78
2021/05/09 00:27:31;;;;;;;4.32;3.92;;;10.30;1.00;;;;;;5038182;28;20133;-76
2021/05/09 00:29:57;;;;;;;4.60;4.00;;;10.30;1.00;;;;;;5043510;28;20049;-76
2021/05/09 00:32:22;;;;;;;6.38;4.53;;;10.30;1.00;;;;;;5022261;28;20097;-77
2021/05/09 00:34:48;;;;;;;8.20;3.75;;;10.20;1.00;;;;;;5037637;28;20029;-75
2021/05/09 00:37:14;;;;;;;6.00;3.92;;;10.20;1.00;;;;;;5029675;28;20061;-78
2021/05/09 00:39:40;;;;;;;6.57;4.18;;;10.20;1.00;;;;;;5028092;28;20030;-76
2021/05/09 00:42:07;;;;;;;6.07;3.50;;;10.20;1.00;;;;;;5039499;28;20022;-77
2021/05/09 00:44:33;;;;;;;4.22;3.80;;;10.20;1.00;;;;;;5022539;28;20489;-77
2021/05/09 00:47:05;;;;;;;5.82;3.85;;;10.30;1.00;;;;;;5033105;28;20381;-78
2021/05/09 00:49:30;;;;;;;6.10;4.13;;;10.30;1.00;;;;;;5035924;28;20584;-78
2021/05/09 00:51:59;;;;;;;9.25;4.45;;;10.30;1.00;;;;;;5023852;28;20021;-78
2021/05/09 00:54:26;;;;;;;6.82;3.70;;;10.30;1.00;;;;;;5052242;28;20048;-78
2021/05/09 00:56:54;;;;;;;4.03;3.50;;;10.20;1.00;;;;;;5045710;28;20029;-77
2021/05/09 00:59:20;;;;;;;5.90;3.50;;;10.20;1.00;;;;;;5050705;28;20017;-77
2021/05/09 01:01:47;;;;;;;4.20;3.80;;;10.10;1.00;;;;;;5035421;28;20025;-77
2021/05/09 01:04:13;;;;;;;3.63;3.33;;;10.10;1.00;;;;;;5012588;28;20025;-77
2021/05/09 01:06:44;;;;;;;3.88;3.47;;;10.10;1.00;;;;;;5047538;28;20651;-77
2021/05/09 01:09:10;;;;;;;;;;;10.00;1.00;;;;;;5022726;28;20022;-77
2021/05/09 01:11:36;;;;;;;4.25;3.85;;;10.00;1.00;;;;;;5030694;28;19909;-77
2021/05/09 01:14:03;;;;;;;3.50;3.20;;;10.00;1.00;;;;;;5046495;28;20038;-77
2021/05/09 01:16:29;;;;;;;5.50;3.70;;;10.00;1.00;;;;;;5032590;28;20497;-77
2021/05/09 01:18:54;;;;;;;3.97;3.17;;;10.00;1.00;;;;;;5024634;28;20084;-76
2021/05/09 01:21:20;;;;;;;5.13;4.20;;;10.00;1.00;;;;;;5024296;28;20033;-77
2021/05/09 01:23:46;;;;;;;3.92;3.47;;;10.00;1.00;;;;;;5020802;28;20025;-78
2021/05/09 01:26:11;;;;;;;5.05;3.25;;;10.00;1.00;;;;;;5028053;28;20101;-78
2021/05/09 01:28:37;;;;;;;6.00;3.92;;;9.90;1.00;;;;;;5045117;28;20336;-77
2021/05/09 01:31:03;;;;;;;4.38;3.38;;;9.90;1.00;;;;;;5036517;28;20021;-77
2021/05/09 01:33:28;;;;;;;4.35;3.70;;;9.90;1.00;;;;;;5019009;28;20082;-77
2021/05/09 01:35:54;;;;;;;9.05;5.93;;;9.90;1.00;;;;;;5022579;28;20022;-76
2021/05/09 01:38:20;;;;;;;3.92;3.53;;;9.90;1.00;;;;;;5021834;28;20030;-78
2021/05/09 01:40:45;;;;;;;3.60;3.30;;;9.80;1.00;;;;;;5015040;28;20041;-77
2021/05/09 01:43:11;;;;;;;5.25;3.70;;;9.80;1.00;;;;;;5017986;28;20045;-79
2021/05/09 01:45:37;;;;;;;8.60;3.95;;;9.80;1.00;;;;;;5017520;28;20037;-76
2021/05/09 01:48:02;;;;;;;4.65;4.18;;;9.80;1.00;;;;;;5019087;28;20481;-78
2021/05/09 01:50:28;;;;;;;5.00;4.40;;;9.80;1.00;;;;;;5020717;28;20034;-78
2021/05/09 01:52:54;;;;;;;6.80;4.10;;;9.70;1.00;;;;;;5020539;28;20026;-78
2021/05/09 01:55:21;;;;;;;4.72;4.20;;;9.80;1.00;;;;;;5035842;28;20025;-77
2021/05/09 01:57:47;;;;;;;5.95;3.40;;;9.80;1.00;;;;;;5023963;28;20032;-77
2021/05/09 02:00:16;;;;;;;4.50;4.10;;;9.80;1.00;;;;;;5020075;28;20101;-76
2021/05/09 02:02:41;;;;;;;3.80;3.50;;;9.70;1.00;;;;;;5014445;28;20528;-77
2021/05/09 02:05:08;;;;;;;4.05;3.65;;;9.80;1.00;;;;;;5047940;28;20033;-77
2021/05/09 02:07:34;;;;;;;4.07;3.42;;;9.70;1.00;;;;;;5046576;28;20482;-78
2021/05/09 02:10:00;;;;;;;3.92;3.40;;;9.80;1.00;;;;;;5020069;28;20045;-76
2021/05/09 02:12:26;;;;;;;4.97;4.00;;;9.70;1.00;;;;;;5032490;28;20029;-76
2021/05/09 02:14:52;;;;;;;3.90;3.40;;;9.70;1.00;;;;;;5016129;28;20389;-76
2021/05/09 02:17:21;;;;;;;3.70;3.35;;;9.70;1.00;;;;;;5015864;28;20029;-76
2021/05/09 02:19:47;;;;;;;4.05;3.60;;;9.70;1.00;;;;;;5017405;28;20064;-76
2021/05/09 02:22:13;;;;;;;5.70;4.07;;;9.70;1.00;;;;;;5039790;28;20022;-76
2021/05/09 02:24:38;;;;;;;5.40;4.25;;;9.70;1.00;;;;;;5046225;28;20051;-76
2021/05/09 02:27:04;;;;;;;4.03;3.63;;;9.60;1.00;;;;;;5025158;28;20108;-77
2021/05/09 02:29:30;;;;;;;4.78;3.35;;;9.70;1.00;;;;;;5041954;28;20044;-76
2021/05/09 02:31:55;;;;;;;4.00;3.40;;;9.60;1.00;;;;;;5023828;28;20033;-77
2021/05/09 02:34:21;;;;;;;3.72;3.35;;;9.60;1.00;;;;;;5036567;28;20060;-77
2021/05/09 02:36:47;;;;;;;4.10;3.70;;;9.60;1.00;;;;;;5025093;28;20018;-76
2021/05/09 02:39:13;;;;;;;7.05;3.88;;;9.60;1.00;;;;;;5027627;28;20044;-76
2021/05/09 02:41:39;;;;;;;6.72;4.25;;;9.60;1.00;;;;;;5028911;28;20021;-76
2021/05/09 02:44:05;;;;;;;4.60;3.83;;;9.60;1.00;;;;;;5018504;28;20022;-76
2021/05/09 02:46:31;;;;;;;4.35;3.53;;;9.60;1.00;;;;;;5042939;28;20029;-77
2021/05/09 02:48:56;;;;;;;4.65;3.50;;;9.60;1.00;;;;;;5036449;28;20030;-77
2021/05/09 02:51:22;;;;;;;4.85;3.70;;;9.60;1.00;;;;;;5015305;28;21548;-77
2021/05/09 02:53:47;;;;;;;3.47;3.17;;;9.50;1.00;;;;;;5021825;28;20026;-76
2021/05/09 02:56:13;;;;;;;5.30;4.07;;;9.60;1.00;;;;;;5031957;28;20036;-76
2021/05/09 02:58:39;;;;;;;4.65;3.30;;;9.60;1.00;;;;;;5044160;28;20030;-77
2021/05/09 03:01:04;;;;;;;4.80;3.78;;;9.60;1.00;;;;;;5017530;28;20081;-76
2021/05/09 03:03:30;;;;;;;4.88;4.03;;;9.60;1.00;;;;;;5020448;28;20029;-80
2021/05/09 03:05:55;;;;;;;6.95;3.97;;;9.60;1.00;;;;;;5017476;28;20026;-77
2021/05/09 03:08:21;;;;;;;5.07;3.50;;;9.70;1.00;;;;;;5017853;28;20057;-76
2021/05/09 03:10:46;;;;;;;5.25;3.58;;;9.70;1.00;;;;;;5042208;28;20032;-77
2021/05/09 03:13:12;;;;;;;7.22;4.85;;;9.70;1.00;;;;;;5030806;28;20022;-76
2021/05/09 03:15:38;;;;;;;4.07;3.28;;;9.60;1.00;;;;;;5046432;28;20081;-76
2021/05/09 03:18:04;;;;;;;4.35;3.70;;;9.70;1.00;;;;;;5041367;28;20034;-76
2021/05/09 03:20:29;;;;;;;6.00;3.88;;;9.60;1.00;;;;;;5035813;28;20578;-77
2021/05/09 03:22:55;;;;;;;6.10;3.90;;;9.70;1.00;;;;;;5042587;28;20124;-76
2021/05/09 03:25:21;;;;;;;5.70;3.78;;;9.70;1.00;;;;;;5033564;28;20033;-77
2021/05/09 03:27:46;;;;;;;5.57;3.70;;;9.70;1.00;;;;;;5039412;28;20045;-77
2021/05/09 03:30:12;;;;;;;3.72;3.42;;;9.70;1.00;;;;;;5040469;28;20108;-77
2021/05/09 03:32:38;;;;;;;4.07;3.65;;;9.70;1.00;;;;;;5016792;28;20029;-77
2021/05/09 03:35:08;;;;;;;4.03;3.60;;;9.70;1.00;;;;;;5015311;28;20486;-77
2021/05/09 03:37:35;;;;;;;3.88;3.40;;;9.70;1.00;;;;;;5022030;28;20512;-77
2021/05/09 03:40:00;;;;;;;5.30;3.20;;;9.70;1.00;;;;;;5015250;28;20025;-76
2021/05/09 03:42:26;;;;;;;3.90;3.55;;;9.60;1.00;;;;;;5030313;28;20129;-76
2021/05/09 03:44:52;;;;;;;4.40;3.53;;;9.60;1.00;;;;;;5015072;28;20018;-77
2021/05/09 03:47:17;;;;;;;3.88;3.47;;;9.60;1.00;;;;;;5015686;28;20045;-78
2021/05/09 03:49:43;;;;;;;3.30;3.00;;;9.60;1.00;;;;;;5038256;28;20026;-77
2021/05/09 03:52:08;;;;;;;4.28;3.70;;;9.60;1.00;;;;;;5045631;28;20051;-77
2021/05/09 03:54:34;;;;;;;4.05;3.28;;;9.60;1.00;;;;;;5044708;28;20044;-76
2021/05/09 03:56:59;;;;;;;8.70;4.00;;;9.60;1.00;;;;;;5055904;28;20030;-77
2021/05/09 03:59:25;;;;;;;5.70;3.60;;;9.60;1.00;;;;;;5017593;28;20022;-76
2021/05/09 04:01:50;;;;;;;6.25;4.00;;;9.50;1.00;;;;;;5016992;28;20018;-76
2021/05/09 04:04:16;;;;;;;3.92;3.47;;;9.50;1.00;;;;;;5032970;28;20351;-78
2021/05/09 04:06:42;;;;;;;10.65;3.30;;;9.60;1.00;;;;;;5027449;28;20052;-77
2021/05/09 04:09:08;;;;;;;4.80;3.35;;;9.60;1.00;;;;;;5040825;28;20091;-77
2021/05/09 04:11:34;;;;;;;3.88;3.33;;;9.70;1.00;;;;;;5031756;28;20108;-77
2021/05/09 04:13:59;;;;;;;4.50;3.50;;;9.70;1.00;;;;;;5017109;28;20058;-77
2021/05/09 04:16:25;;;;;;;3.42;3.15;;;9.80;1.00;;;;;;5027516;28;20030;-77
2021/05/09 04:18:51;;;;;;;5.88;3.40;;;10.10;1.00;;;;;;5014465;28;20405;-78
2021/05/09 04:21:16;;;;;;;4.97;3.00;;;10.30;1.00;;;;;;5026408;28;20033;-77
2021/05/09 04:23:42;;;;;;;3.80;3.08;;;10.60;1.00;;;;;;5031825;28;20145;-76
2021/05/09 04:26:07;;;;;;;6.70;3.10;;;11.00;99.90;;;;;;5014099;28;20490;-77
2021/05/09 04:28:33;;;;;;;6.35;3.10;;;11.40;99.90;;;;;;5017826;28;20504;-78
2021/05/09 04:30:58;;;;;;;3.72;2.70;;;11.70;99.90;;;;;;5030102;28;20033;-77
2021/05/09 04:33:26;;;;;;;3.15;2.65;;;12.50;99.90;;;;;;5035812;28;20017;-75
2021/05/09 04:35:52;;;;;;;3.17;2.47;;;13.20;99.90;;;;;;5012957;28;20023;-77
2021/05/09 04:38:18;;;;;;;2.75;2.42;;;13.70;99.90;;;;;;5018108;28;20033;-77
2021/05/09 04:40:44;;;;;;;5.95;4.38;;;14.20;99.90;;;;;;5026732;28;20033;-77
2021/05/09 04:43:12;;;;;;;4.97;2.45;;;13.70;99.90;;;;;;5022367;28;20488;-75
2021/05/09 04:45:38;;;;;;;3.60;2.67;;;13.20;99.90;;;;;;5033894;28;20125;-76
2021/05/09 04:48:05;;;;;;;3.78;2.67;;;13.00;99.90;;;;;;5029852;28;20025;-76
2021/05/09 04:50:31;;;;;;;2.50;2.30;;;12.80;99.90;;;;;;5023977;28;20021;-76
2021/05/09 04:52:56;;;;;;;3.17;2.92;;;12.90;99.90;;;;;;5051291;28;20025;-75
2021/05/09 04:55:22;;;;;;;3.17;2.60;;;13.10;99.90;;;;;;5050984;28;20034;-76
2021/05/09 04:57:48;;;;;;;3.28;2.97;;;13.10;99.90;;;;;;5046546;28;20014;-75
2021/05/09 05:00:14;;;;;;;4.72;3.15;;;13.20;99.90;;;;;;5039968;28;20392;-75
2021/05/09 05:02:49;;;;;;;5.45;2.47;;;13.20;99.90;;;;;;5040736;28;20048;-75
2021/05/09 05:05:15;;;;;;;6.43;2.58;;;13.20;99.90;;;;;;5041297;28;20032;-75
2021/05/09 05:07:41;;;;;;;3.72;2.58;;;13.70;99.90;;;;;;5059053;28;20064;-76
2021/05/09 05:10:07;;;;;;;4.20;2.17;;;14.00;99.90;;;;;;5043663;28;20017;-78
2021/05/09 05:12:33;;;;;;;3.17;1.90;;;14.00;99.90;;;;;;5039559;28;20404;-75
2021/05/09 05:14:59;;;;;;;5.18;2.60;;;14.00;99.90;;;;;;5039845;28;20060;-75
2021/05/09 05:17:24;;;;;;;5.22;2.33;;;13.70;99.90;;;;;;5040875;28;20191;-74
2021/05/09 05:19:50;;;;;;;7.30;2.78;;;13.50;99.90;;;;;;5041067;28;20072;-76
2021/05/09 05:22:15;;;;;;;5.97;2.70;;;13.80;99.90;;;;;;5048087;28;20033;-75
2021/05/09 05:24:41;;;;;;;3.50;2.80;;;14.00;99.90;;;;;;5032012;28;20420;-77
2021/05/09 05:27:07;;;;;;;4.03;2.30;;;14.20;99.90;;;;;;5049005;28;20079;-76
2021/05/09 05:29:32;;;;;;;4.95;2.63;;;14.20;96.90;;;;;;5040498;28;20041;-76
2021/05/09 05:31:58;;;;;;;2.83;2.25;;;14.20;34.70;;;;;;5058060;28;20069;-76
2021/05/09 05:34:23;;;;;;;4.68;2.70;;;13.80;99.90;;;;;;5040927;28;20056;-75
2021/05/09 05:36:49;;;;;;;9.57;2.60;;;13.50;99.90;;;;;;5057227;28;20017;-75
2021/05/09 05:39:15;;;;;;;4.32;2.38;;;13.30;99.90;;;;;;5058500;28;20037;-76
2021/05/09 05:41:40;;;;;;;3.20;2.50;;;13.30;99.90;;;;;;5047399;28;20033;-76
2021/05/09 05:44:07;;;;;;;3.20;2.75;;;13.40;99.90;;;;;;5050304;28;20022;-75
2021/05/09 05:46:33;;;;;;;2.47;2.17;;;13.20;99.90;;;;;;5043871;28;20018;-75
2021/05/09 05:48:58;;;;;;;3.45;2.72;;;13.00;99.90;;;;;;5053066;28;20042;-76
2021/05/09 05:51:24;;;;;;;2.63;2.17;;;12.80;99.90;;;;;;5045900;28;20030;-75
2021/05/09 05:53:55;;;;;;;6.82;2.95;;;13.10;99.90;;;;;;5028340;28;20079;-75
2021/05/09 05:56:20;;;;;;;3.58;2.30;;;14.10;99.90;;;;;;5035794;28;20460;-77
2021/05/09 05:58:46;;;;;;;2.30;2.10;;;14.70;41.90;;;;;;5027300;28;20037;-77
2021/05/09 06:01:12;;;;;;;3.78;2.40;;;15.30;1.00;;;;;;5022741;28;20042;-77
2021/05/09 06:03:37;;;;;;;2.58;2.38;;;15.70;99.90;;;;;;5026129;28;20036;-77
2021/05/09 06:06:03;;;;;;;4.28;2.90;;;16.50;99.90;;;;;;5037166;28;20029;-76
2021/05/09 06:08:28;;;;;;;2.50;2.08;;;16.70;99.90;;;;;;5039069;28;20017;-76
2021/05/09 06:10:54;;;;;;;3.35;2.20;;;16.50;1.00;;;;;;5046677;28;20393;-76
2021/05/09 06:13:21;;;;;;;2.90;2.13;;;16.40;1.00;;;;;;5033889;28;20076;-77
2021/05/09 06:15:46;;;;;;;5.57;3.60;;;16.10;99.90;;;;;;5035849;28;20082;-77
2021/05/09 06:18:12;;;;;;;2.47;2.28;;;15.60;1.00;;;;;;5064839;28;20032;-77
2021/05/09 06:20:38;;;;;;;3.38;2.90;;;15.30;75.70;;;;;;5049803;28;20163;-77
2021/05/09 06:23:03;;;;;;;3.33;2.90;;;15.00;99.90;;;;;;5032273;28;20080;-75
2021/05/09 06:25:30;;;;;;;2.83;2.40;;;15.00;99.90;;;;;;5036533;28;20069;-76
2021/05/09 06:27:56;;;;;;;3.35;2.50;;;15.20;99.90;;;;;;5036648;28;20053;-77
2021/05/09 06:30:22;;;;;;;3.58;2.08;;;15.10;99.90;;;;;;5048286;28;20017;-74
2021/05/09 06:32:48;;;;;;;3.58;2.50;;;15.30;99.90;;;;;;5069262;28;20029;-76
2021/05/09 06:35:14;;;;;;;3.47;2.47;;;15.20;99.90;;;;;;5056060;28;20034;-78
2021/05/09 06:37:40;;;;;;;3.08;2.67;;;15.20;99.90;;;;;;5052309;28;20043;-77
2021/05/09 06:40:07;;;;;;;2.75;2.15;;;15.20;99.90;;;;;;5033984;28;20064;-77
2021/05/09 06:42:33;;;;;;;3.70;2.08;;;15.50;99.90;;;;;;5050711;28;20018;-78
2021/05/09 06:45:06;;;;;;;2.42;2.15;;;15.80;99.90;;;;;;5040047;28;20057;-78
2021/05/09 06:47:32;;;;;;;2.45;2.25;;;15.90;46.60;;;;;;5042462;28;20040;-77
2021/05/09 06:49:57;;;;;;;2.35;2.15;;;16.10;31.50;;;;;;5052446;28;20017;-77
2021/05/09 06:52:23;;;;;;;2.72;2.08;;;16.00;5.50;;;;;;5043212;28;20068;-77
2021/05/09 06:54:49;;;;;;;3.10;2.25;;;16.30;1.00;;;;;;5041557;28;20025;-75
2021/05/09 06:57:15;;;;;;;2.00;1.83;;;16.60;99.90;;;;;;5047369;28;20018;-76
2021/05/09 06:59:40;;;;;;;3.35;1.92;;;16.50;99.90;;;;;;5034552;28;20034;-77
2021/05/09 07:02:06;;;;;;;2.38;1.63;;;16.70;99.90;;;;;;5039926;28;20039;-77
2021/05/09 07:04:32;;;;;;;3.17;2.28;;;16.80;99.90;;;;;;5033669;28;20025;-77
2021/05/09 07:06:58;;;;;;;3.38;1.70;;;16.90;99.90;;;;;;5042312;28;20030;-76
2021/05/09 07:09:23;;;;;;;4.47;2.10;;;17.20;99.90;;;;;;5044662;28;20064;-76
2021/05/09 07:11:49;;;;;;;2.25;2.05;;;17.40;99.90;;;;;;5037929;28;20017;-76
2021/05/09 07:14:14;;;;;;;6.80;1.52;;;17.50;1.00;;;;;;5028866;28;20081;-78
2021/05/09 07:16:40;;;;;;;2.35;1.50;;;17.70;99.90;;;;;;5025414;28;20089;-77
2021/05/09 07:19:07;;;;;;;4.00;2.45;;;17.70;99.90;;;;;;5021505;28;20477;-76
2021/05/09 07:21:46;;;;;;;2.85;1.58;;;17.90;99.90;;;;;;5032505;28;20053;-76
2021/05/09 07:24:12;;;;;;;2.42;1.40;;;17.90;1.00;;;;;;5025688;28;20025;-78
2021/05/09 07:26:37;;;;;;;2.22;1.90;;;17.90;1.00;;;;;;5034818;28;20113;-77
2021/05/09 07:29:03;;;;;;;2.80;1.52;;;18.10;99.90;;;;;;5026437;28;20033;-78
2021/05/09 07:31:31;;;;;;;1.95;1.77;;;18.20;74.40;;;;;;5036880;28;20108;-79
2021/05/09 07:33:57;;;;;;;1.50;1.33;;;18.40;1.00;;;;;;5042321;28;20072;-80
2021/05/09 07:36:22;;;;;;;3.42;1.40;;;18.60;17.20;;;;;;5019406;28;20046;-77
2021/05/09 07:38:48;;;;;;;2.10;1.40;;;18.90;99.90;;;;;;5021854;28;20030;-79
2021/05/09 07:41:13;;;;;;;1.70;1.42;;;19.10;34.00;;;;;;5037983;28;20053;-78
2021/05/09 07:43:39;;;;;;;4.07;1.50;;;18.90;99.90;;;;;;5045035;28;20044;-79
2021/05/09 07:46:04;;;;;;;2.05;1.35;;;19.20;1.00;;;;;;5031062;28;20093;-78
2021/05/09 07:48:30;;;;;;;2.35;1.70;;;19.30;1.00;;;;;;5032178;28;20039;-78
2021/05/09 07:50:57;;;;;;;1.70;1.30;;;19.30;1.00;;;;;;5043724;28;20089;-77
2021/05/09 07:53:23;;;;;;;2.50;1.35;;;19.50;99.90;;;;;;5040805;28;20393;-78
2021/05/09 07:55:48;;;;;;;3.30;1.30;;;19.70;99.90;;;;;;5037932;28;20026;-79
2021/05/09 07:58:17;;;;;;;1.90;1.30;;;19.80;99.90;;;;;;5028785;28;20022;-79
2021/05/09 08:00:43;;;;;;;2.42;1.20;;;19.90;97.80;;;;;;5020537;28;20076;-81
2021/05/09 08:03:09;;;;;;;1.85;1.02;;;20.10;53.50;;;;;;5018847;28;20094;-78
2021/05/09 08:05:34;;;;;;;2.40;1.52;;;20.20;1.00;;;;;;5017628;28;20046;-78
2021/05/09 08:08:00;;;;;;;1.33;1.23;;;20.30;1.00;;;;;;5011603;28;20036;-76
2021/05/09 08:10:27;;;;;;;1.45;1.17;;;20.40;1.00;;;;;;5018099;28;20031;-77
2021/05/09 08:12:54;;;;;;;4.15;1.25;;;20.60;99.90;;;;;;5035530;28;20084;-76
2021/05/09 08:15:23;;;;;;;3.83;1.40;;;20.80;99.90;;;;;;5018353;28;20033;-76
2021/05/09 08:17:49;;;;;;;1.80;1.05;;;20.80;99.90;;;;;;5022566;28;20090;-76
2021/05/09 08:20:16;;;;;;;1.40;1.20;;;21.10;99.90;;;;;;5050195;28;20465;-76
2021/05/09 08:22:44;;;;;;;1.75;1.10;;;21.10;99.90;;;;;;5033285;28;20493;-75
2021/05/09 08:25:10;;;;;;;4.90;1.40;;;21.20;99.90;;;;;;5023897;28;20021;-78
2021/05/09 08:27:36;;;;;;;2.53;0.95;;;21.50;99.90;;;;;;5027845;28;20032;-77
2021/05/09 08:30:03;;;;;;;1.75;1.00;;;21.60;99.90;;;;;;5024057;28;20396;-78
2021/05/09 08:32:29;;;;;;;1.25;1.15;;;21.70;99.90;;;;;;5022443;28;20022;-77
2021/05/09 08:34:56;;;;;;;1.23;1.13;;;21.90;99.90;;;;;;5014928;28;20078;-77
2021/05/09 08:37:23;;;;;;;1.52;1.10;;;22.00;99.50;;;;;;5018579;28;20018;-75
2021/05/09 08:39:48;;;;;;;2.53;0.93;;;22.20;84.00;;;;;;5024269;28;20408;-76
2021/05/09 08:42:18;;;;;;;1.27;0.90;;;22.40;15.80;;;;;;5036660;28;20061;-75
2021/05/09 08:44:48;;;;;;;3.08;0.90;;;22.40;1.00;;;;;;5029812;28;20026;-75
2021/05/09 08:47:21;;;;;;;1.40;1.00;;;22.40;1.00;;;;;;5042751;28;20022;-75
2021/05/09 08:49:48;;;;;;;1.90;1.10;;;22.60;1.00;;;;;;5050510;28;20064;-76
2021/05/09 08:52:20;;;;;;;1.30;1.08;;;22.70;1.00;;;;;;5032820;28;20026;-75
2021/05/09 08:54:47;;;;;;;4.28;0.93;;;22.90;1.00;;;;;;5029924;28;20026;-76
2021/05/09 08:57:14;;;;;;;2.97;1.10;;;22.90;1.00;;;;;;5016333;28;20040;-76
2021/05/09 08:59:39;;;;;;;1.65;1.17;;;23.10;1.00;;;;;;5025120;28;20077;-75
2021/05/09 09:02:05;;;;;;;3.10;1.10;;;23.10;1.00;;;;;;5025061;28;20041;-75
2021/05/09 09:05:00;;;;;;;1.33;1.02;;;23.30;1.00;;;;;;5018057;28;20092;-75
2021/05/09 09:07:46;;;;;;;3.00;1.30;;;23.50;1.00;;;;;;4998021;28;20040;-74
2021/05/09 09:10:38;;;;;;;2.90;0.93;;;23.60;99.90;;;;;;5011996;28;20017;-74
2021/05/09 09:13:18;;;;;;;1.65;1.00;;;23.90;99.90;;;;;;5018184;28;20018;-76
2021/05/09 09:15:53;;;;;;;1.35;1.13;;;24.10;99.90;;;;;;5020657;28;20056;-74
2021/05/09 09:18:32;;;;;;;1.60;1.15;;;24.20;99.90;;;;;;5028141;28;20564;-75
2021/05/09 09:21:17;;;;;;;1.30;1.05;;;24.20;99.90;;;;;;5015839;28;20041;-74
2021/05/09 09:23:44;;;;;;;1.27;1.00;;;24.40;99.90;;;;;;5014062;28;20033;-75
2021/05/09 09:26:34;;;;;;;2.03;1.50;;;24.60;99.90;;;;;;5018757;28;20029;-75
2021/05/09 09:29:02;;;;;;;1.73;1.13;;;24.70;99.90;;;;;;5026985;28;20021;-74
2021/05/09 09:31:44;;;;;;;1.38;0.90;;;24.90;99.90;;;;;;5030086;28;20519;-74
2021/05/09 09:34:10;;;;;;;2.63;1.15;;;25.10;99.90;;;;;;5039616;28;20489;-73
2021/05/09 09:36:37;;;;;;;2.03;0.98;;;25.20;99.90;;;;;;5028059;28;20055;-74
2021/05/09 09:39:04;;;;;;;1.23;0.80;;;25.40;99.90;;;;;;5026653;28;20031;-74
2021/05/09 09:41:30;;;;;;;1.40;1.00;;;25.50;99.90;;;;;;5034916;28;20044;-75
2021/05/09 09:44:11;;;;;;;2.05;0.70;;;25.70;99.90;;;;;;5018430;28;20025;-75
2021/05/09 09:46:52;;;;;;;2.30;0.90;;;25.90;99.90;;;;;;5026719;28;20034;-74
2021/05/09 09:49:32;;;;;;;2.15;0.88;;;26.00;99.90;;;;;;5036220;28;20151;-75
2021/05/09 09:52:04;;;;;;;1.20;0.80;;;26.30;99.90;;;;;;5034632;28;20033;-74
2021/05/09 09:54:34;;;;;;;2.42;0.80;;;26.40;99.90;;;;;;5043836;28;20030;-77
2021/05/09 09:57:02;;;;;;;1.20;0.82;;;26.70;99.90;;;;;;5016553;28;20038;-77
2021/05/09 09:59:28;;;;;;;2.33;0.80;;;26.80;99.90;;;;;;5023245;28;20034;-78
2021/05/09 10:01:54;;;;;;;1.40;0.80;;;26.90;99.90;;;;;;5037972;28;20033;-78
2021/05/09 10:04:19;;;;;;;1.30;0.90;;;26.80;99.90;;;;;;5021007;28;20065;-76
2021/05/09 10:06:45;;;;;;;1.58;0.90;;;26.90;99.90;;;;;;5011005;28;20069;-76
2021/05/09 10:09:11;;;;;;;1.10;0.88;;;27.10;99.90;;;;;;5024406;28;20450;-76
2021/05/09 10:11:37;;;;;;;1.27;1.17;;;27.10;99.90;;;;;;5033282;28;20444;-76
2021/05/09 10:14:04;;;;;;;0.95;0.75;;;27.00;99.90;;;;;;5014105;28;20082;-75
2021/05/09 10:16:37;;;;;;;3.10;0.75;;;27.10;99.90;;;;;;5029609;28;20025;-76
2021/05/09 10:19:13;;;;;;;1.23;0.85;;;27.10;95.00;;;;;;5015526;28;20461;-76
2021/05/09 10:21:42;;;;;;;1.23;0.70;;;27.30;92.80;;;;;;5028722;28;20033;-76
2021/05/09 10:24:18;;;;;;;1.52;0.93;;;27.20;83.70;;;;;;5012693;28;20480;-76
2021/05/09 10:27:09;;;;;;;2.08;0.80;;;27.40;75.90;;;;;;5027015;28;20033;-76
2021/05/09 10:29:41;;;;;;;2.30;0.60;;;27.40;64.20;;;;;;5003199;28;20092;-76
2021/05/09 10:32:20;;;;;;;2.10;1.10;;;27.50;60.90;;;;;;5013292;28;20053;-76
2021/05/09 10:34:55;;;;;;;1.52;0.88;;;27.60;57.20;;;;;;5013205;28;20080;-76
2021/05/09 10:40:18;;;;;;;2.53;0.60;;;28.00;52.20;;;;;;5015595;28;20481;-77
2021/05/09 10:42:45;;;;;;;0.73;0.57;;;27.90;48.50;;;;;;5017561;28;20052;-78
2021/05/09 10:45:11;;;;;;;0.75;0.73;;;28.00;42.40;;;;;;5026860;28;20065;-78
2021/05/09 10:47:36;;;;;;;0.70;0.63;;;28.00;41.10;;;;;;5033089;28;20065;-78
2021/05/09 10:50:14;;;;;;;0.50;0.50;;;27.90;38.70;;;;;;5031410;28;20041;-79
2021/05/09 10:52:44;;;;;;;0.55;0.55;;;28.20;37.80;;;;;;5018448;28;20033;-80
2021/05/09 10:55:47;;;;;;;0.75;0.60;;;28.20;35.70;;;;;;5025480;28;20081;-77
2021/05/09 10:58:15;;;;;;;2.63;0.80;;;28.20;31.70;;;;;;5038138;28;20018;-77
2021/05/09 11:00:59;;;;;;;0.88;0.70;;;28.20;31.80;;;;;;5034565;28;20120;-76
2021/05/09 11:03:34;;;;;;;1.00;0.60;;;28.30;31.20;;;;;;5033533;28;20029;-77
2021/05/09 11:06:14;;;;;;;5.20;0.98;;;28.40;28.90;;;;;;5032230;28;20022;-77
2021/05/09 11:08:43;;;;;;;0.93;0.70;;;28.30;30.40;;;;;;5029551;28;20053;-75
2021/05/09 11:11:29;;;;;;;0.60;0.60;;;28.30;26.90;;;;;;5035841;28;20044;-78
2021/05/09 11:13:59;;;;;;;1.30;0.65;;;28.50;27.10;;;;;;5026492;28;20402;-78
2021/05/09 11:16:33;;;;;;;1.52;0.70;;;28.40;25.00;;;;;;5029005;28;20029;-78
2021/05/09 11:19:09;;;;;;;1.77;0.60;;;28.60;24.30;;;;;;5019535;28;20028;-79
2021/05/09 11:21:35;;;;;;;0.85;0.73;;;28.90;23.80;;;;;;5027851;28;20130;-77
2021/05/09 11:24:06;;;;;;;1.95;0.70;;;28.70;21.40;;;;;;5021493;28;20029;-76
2021/05/09 11:26:38;;;;;;;0.50;0.43;;;29.00;21.90;;;;;;5025029;28;20076;-76
2021/05/09 11:29:08;;;;;;;2.60;0.80;;;28.70;20.10;;;;;;5024989;28;20052;-76
2021/05/09 11:31:35;;;;;;;1.85;0.60;;;28.90;20.20;;;;;;5023655;28;20075;-74
2021/05/09 11:34:02;;;;;;;3.47;0.60;;;29.00;19.00;;;;;;5035622;28;20022;-75
2021/05/09 11:36:33;;;;;;;1.40;0.60;;;29.10;18.50;;;;;;5035723;28;20511;-77
2021/05/09 11:39:08;;;;;;;1.25;0.50;;;29.00;17.30;;;;;;5031340;28;20057;-75
2021/05/09 11:42:06;;;;;;;0.65;0.55;;;29.10;16.30;;;;;;5023311;28;20036;-76
2021/05/09 11:44:41;;;;;;;3.53;0.50;;;29.10;15.20;;;;;;5043809;28;20095;-75
2021/05/09 11:47:21;;;;;;;0.50;0.50;;;29.10;15.00;;;;;;5038536;28;20061;-75
2021/05/09 11:49:48;;;;;;;1.10;0.70;;;29.30;14.30;;;;;;5017510;28;20030;-75
2021/05/09 11:52:19;;;;;;;2.13;0.63;;;29.30;12.90;;;;;;5031764;28;20038;-76
2021/05/09 11:54:58;;;;;;;0.70;0.50;;;29.30;11.60;;;;;;5036298;28;20508;-75
2021/05/09 11:57:25;;;;;;;0.47;0.47;;;29.30;12.20;;;;;;5035745;28;20021;-76
2021/05/09 11:59:52;;;;;;;1.00;0.50;;;29.40;12.10;;;;;;5051800;28;20029;-75
2021/05/09 12:02:21;;;;;;;0.52;0.50;;;29.60;11.60;;;;;;5036974;28;20361;-76
2021/05/09 12:04:56;;;;;;;1.08;0.50;;;29.60;10.90;;;;;;5026919;28;20381;-74
2021/05/09 12:07:30;;;;;;;0.90;0.70;;;29.50;9.40;;;;;;5012656;28;20118;-76
2021/05/09 12:10:00;;;;;;;0.93;0.60;;;29.70;8.40;;;;;;5029309;28;20174;-76
2021/05/09 12:12:29;;;;;;;2.58;1.85;;;29.60;7.30;;;;;;5043466;28;20029;-75
2021/05/09 12:14:55;;;;;;;1.13;0.73;;;29.50;7.20;;;;;;5035597;28;20076;-74
2021/05/09 12:17:27;;;;;;;2.70;0.70;;;29.60;6.90;;;;;;5023492;28;20018;-76
2021/05/09 12:19:55;;;;;;;1.23;0.65;;;29.40;6.10;;;;;;5027175;28;20041;-77
2021/05/09 12:22:22;;;;;;;1.17;0.63;;;29.50;5.20;;;;;;5037964;28;20026;-77
2021/05/09 12:24:52;;;;;;;0.60;0.50;;;29.60;6.00;;;;;;5021710;28;20018;-76
2021/05/09 12:27:18;;;;;;;0.60;0.52;;;29.90;5.80;;;;;;5025109;28;20125;-74
2021/05/09 12:29:52;;;;;;;1.02;0.60;;;29.60;4.10;;;;;;5027932;28;20496;-76
2021/05/09 12:32:19;;;;;;;3.00;0.98;;;29.70;4.70;;;;;;5013699;28;20022;-76
2021/05/09 12:35:03;;;;;;;0.82;0.40;;;29.70;3.90;;;;;;5033857;28;20507;-76
2021/05/09 12:37:31;;;;;;;1.20;0.63;;;29.80;4.70;;;;;;5022214;28;20061;-76
2021/05/09 12:40:15;;;;;;;2.30;0.60;;;29.70;2.70;;;;;;5018014;28;20377;-76
2021/05/09 12:42:58;;;;;;;2.15;0.52;;;29.60;2.10;;;;;;5022556;28;20025;-77
2021/05/09 12:45:28;;;;;;;2.60;0.55;;;29.70;2.20;;;;;;5009876;28;20026;-76
2021/05/09 12:48:16;;;;;;;1.50;0.73;;;29.90;2.00;;;;;;5039260;28;20118;-75
2021/05/09 12:50:50;;;;;;;1.50;0.68;;;29.70;1.00;;;;;;5029802;28;20096;-75
2021/05/09 12:53:18;;;;;;;2.58;1.23;;;29.60;1.00;;;;;;5040533;28;20082;-77
2021/05/09 12:55:44;;;;;;;0.60;0.52;;;29.70;1.00;;;;;;5023551;28;20030;-75
2021/05/09 12:58:14;;;;;;;1.50;0.65;;;29.50;1.00;;;;;;5017073;28;20038;-76
2021/05/09 13:00:40;;;;;;;0.77;0.70;;;29.70;1.00;;;;;;5029216;28;20030;-76
2021/05/09 13:03:06;;;;;;;0.43;0.43;;;30.00;1.00;;;;;;5034999;28;20037;-75